createdAt,value
2019-01-14T00:01:04.381Z,9.33
2019-01-14T00:03:31.883Z,13.97
2019-01-14T00:05:59.365Z,8.83
2019-01-14T00:08:27.111Z,10.20
2019-01-14T00:10:54.606Z,8.93
2019-01-14T00:13:22.095Z,12.07
2019-01-14T00:15:49.572Z,13.30
2019-01-14T00:18:17.079Z,13.73
2019-01-14T00:20:44.704Z,8.40
2019-01-14T00:23:12.169Z,10.70
2019-01-14T00:25:39.638Z,11.23
2019-01-14T00:28:07.143Z,11.93
2019-01-14T00:30:34.684Z,12.37
2019-01-14T00:33:02.244Z,11.70
2019-01-14T00:35:29.748Z,15.47
2019-01-14T00:37:57.257Z,13.73
2019-01-14T00:40:24.793Z,15.33
2019-01-14T00:42:52.324Z,13.07
2019-01-14T00:45:19.909Z,9.93
2019-01-14T00:47:47.392Z,15.77
2019-01-14T00:50:15.154Z,12.00
2019-01-14T00:52:42.661Z,10.63
2019-01-14T00:55:10.342Z,12.40
2019-01-14T00:57:37.807Z,10.47
2019-01-14T01:00:06.865Z,11.87
2019-01-14T01:02:34.409Z,13.50
2019-01-14T01:05:02.020Z,10.97
2019-01-14T01:07:29.569Z,9.73
2019-01-14T01:09:57.035Z,11.03
2019-01-14T01:12:24.881Z,10.70
2019-01-14T01:14:52.390Z,10.20
2019-01-14T01:17:19.855Z,10.80
2019-01-14T01:19:47.396Z,13.00
2019-01-14T01:22:14.976Z,10.17
2019-01-14T01:24:42.447Z,11.03
2019-01-14T01:27:09.942Z,10.47
2019-01-14T01:29:37.439Z,11.87
2019-01-14T01:32:04.894Z,9.70
2019-01-14T01:34:32.423Z,10.27
2019-01-14T01:36:59.971Z,9.60
2019-01-14T01:39:27.441Z,8.40
2019-01-14T01:41:54.924Z,7.70
2019-01-14T01:44:22.400Z,9.53
2019-01-14T01:46:49.906Z,10.13
2019-01-14T01:49:17.557Z,9.40
2019-01-14T01:51:45.031Z,10.33
2019-01-14T01:54:12.482Z,7.43
2019-01-14T01:56:40.065Z,9.20
2019-01-14T01:59:07.533Z,8.23
2019-01-14T02:01:35.021Z,8.23
2019-01-14T02:04:02.509Z,9.73
2019-01-14T02:06:29.977Z,8.50
2019-01-14T02:08:57.450Z,10.10
2019-01-14T02:11:24.967Z,8.43
2019-01-14T02:13:52.534Z,11.10
2019-01-14T02:16:20.072Z,7.10
2019-01-14T02:18:47.578Z,8.73
2019-01-14T02:21:15.041Z,7.20
2019-01-14T02:23:42.513Z,12.80
2019-01-14T02:26:09.990Z,6.20
2019-01-14T02:28:37.463Z,6.30
2019-01-14T02:31:04.953Z,9.60
2019-01-14T02:33:32.444Z,6.60
2019-01-14T02:36:00.117Z,7.50
2019-01-14T02:38:27.616Z,8.47
2019-01-14T02:40:55.081Z,6.57
2019-01-14T02:43:22.606Z,6.60
2019-01-14T02:45:50.169Z,6.33
2019-01-14T02:48:17.722Z,5.60
2019-01-14T02:50:45.267Z,6.97
2019-01-14T02:53:12.755Z,5.80
2019-01-14T02:55:40.218Z,5.70
2019-01-14T02:58:07.701Z,5.97
2019-01-14T03:00:35.179Z,9.73
2019-01-14T03:03:02.657Z,5.90
2019-01-14T03:05:30.115Z,7.70
2019-01-14T03:07:57.605Z,8.90
2019-01-14T03:10:25.067Z,8.97
2019-01-14T03:12:52.536Z,7.00
2019-01-14T03:15:20.136Z,6.80
2019-01-14T03:17:47.581Z,5.73
2019-01-14T03:20:15.940Z,8.67
2019-01-14T03:22:43.448Z,4.63
2019-01-14T03:25:11.358Z,6.43
2019-01-14T03:27:38.921Z,6.90
2019-01-14T03:30:08.174Z,3.70
2019-01-14T03:32:35.637Z,1.00
2019-01-14T03:35:03.169Z,0.90
2019-01-14T03:37:30.655Z,0.80
2019-01-14T03:39:58.213Z,1.40
2019-01-14T03:42:25.673Z,1.70
2019-01-14T03:44:53.137Z,1.60
2019-01-14T03:47:20.624Z,1.13
2019-01-14T03:49:48.109Z,0.90
2019-01-14T03:52:15.568Z,1.07
2019-01-14T03:54:43.059Z,1.53
2019-01-14T03:57:10.544Z,1.03
2019-01-14T03:59:38.018Z,1.03
2019-01-14T04:02:05.467Z,1.10
2019-01-14T04:04:32.945Z,0.80
2019-01-14T04:07:00.402Z,1.17
2019-01-14T04:09:27.957Z,0.93
2019-01-14T04:11:55.444Z,1.67
2019-01-14T04:14:22.903Z,0.80
2019-01-14T04:16:50.387Z,1.33
2019-01-14T04:19:17.848Z,1.10
2019-01-14T04:21:45.335Z,1.17
2019-01-14T04:24:12.843Z,1.30
2019-01-14T04:26:40.300Z,2.90
2019-01-14T04:29:07.764Z,0.80
2019-01-14T04:31:35.285Z,1.27
2019-01-14T04:34:02.753Z,1.17
2019-01-14T04:36:30.209Z,0.90
2019-01-14T04:38:57.979Z,1.23
2019-01-14T04:41:25.447Z,1.10
2019-01-14T04:43:52.933Z,0.70
2019-01-14T04:46:20.412Z,1.00
2019-01-14T04:48:47.965Z,0.60
2019-01-14T04:51:15.558Z,3.23
2019-01-14T04:53:43.017Z,0.90
2019-01-14T04:56:10.481Z,0.77
2019-01-14T04:58:37.976Z,0.80
2019-01-14T05:01:05.535Z,0.60
2019-01-14T05:03:33.007Z,0.77
2019-01-14T05:06:00.567Z,0.67
2019-01-14T05:08:27.972Z,1.03
2019-01-14T05:10:55.495Z,0.47
2019-01-14T05:13:23.058Z,0.80
2019-01-14T05:15:50.538Z,0.87
2019-01-14T05:18:18.000Z,1.40
2019-01-14T05:20:45.485Z,0.50
2019-01-14T05:23:12.957Z,1.07
2019-01-14T05:25:40.518Z,2.00
2019-01-14T05:28:07.985Z,0.70
2019-01-14T05:30:35.460Z,1.40
2019-01-14T05:33:02.932Z,0.80
2019-01-14T05:35:30.380Z,0.60
2019-01-14T05:37:57.873Z,0.40
2019-01-14T05:40:25.739Z,0.90
2019-01-14T05:42:53.232Z,0.70
2019-01-14T05:45:20.697Z,0.67
2019-01-14T05:47:48.168Z,0.70
2019-01-14T05:50:16.055Z,0.70
2019-01-14T05:52:43.721Z,0.80
2019-01-14T05:55:11.750Z,0.77
2019-01-14T05:57:39.250Z,0.57
2019-01-14T06:00:08.243Z,0.60
2019-01-14T06:02:35.709Z,1.40
2019-01-14T06:05:03.513Z,1.00
2019-01-14T06:07:30.992Z,1.23
2019-01-14T06:09:58.460Z,0.77
2019-01-14T06:12:25.980Z,1.00
2019-01-14T06:14:53.457Z,0.73
2019-01-14T06:17:20.912Z,1.00
2019-01-14T06:19:48.567Z,0.77
2019-01-14T06:22:16.096Z,0.70
2019-01-14T06:24:43.588Z,0.90
2019-01-14T06:27:11.056Z,1.47
2019-01-14T06:29:38.579Z,0.50
2019-01-14T06:32:06.096Z,1.07
2019-01-14T06:34:33.564Z,0.87
2019-01-14T06:37:01.072Z,0.70
2019-01-14T06:39:28.533Z,0.77
2019-01-14T06:41:56.071Z,0.70
2019-01-14T06:44:23.600Z,1.20
2019-01-14T06:47:08.754Z,0.80
2019-01-14T06:49:55.283Z,1.43
2019-01-14T06:52:40.349Z,1.33
2019-01-14T06:55:27.250Z,0.93
2019-01-14T06:57:53.414Z,0.83
2019-01-14T07:00:22.221Z,1.07
2019-01-14T07:02:49.698Z,1.80
2019-01-14T07:05:17.305Z,3.13
2019-01-14T07:07:44.800Z,1.23
2019-01-14T07:10:14.130Z,1.17
2019-01-14T07:12:41.632Z,2.80
2019-01-14T07:15:09.693Z,1.00
2019-01-14T07:17:37.176Z,1.00
2019-01-14T07:20:11.693Z,1.20
2019-01-14T07:22:39.239Z,1.40
2019-01-14T07:25:07.524Z,1.27
2019-01-14T07:27:35.038Z,1.10
2019-01-14T07:30:02.483Z,1.83
2019-01-14T07:32:30.020Z,1.70
2019-01-14T07:34:57.500Z,2.30
2019-01-14T07:37:24.972Z,1.10
2019-01-14T07:39:52.434Z,1.60
2019-01-14T07:42:19.973Z,2.40
2019-01-14T07:44:47.458Z,1.30
2019-01-14T07:47:14.922Z,1.40
2019-01-14T07:49:42.384Z,1.50
2019-01-14T07:52:09.861Z,1.63
2019-01-14T07:54:37.271Z,1.10
2019-01-14T07:57:04.790Z,3.80
2019-01-14T07:59:32.281Z,1.37
2019-01-14T08:01:59.807Z,1.40
2019-01-14T08:04:27.264Z,4.40
2019-01-14T08:06:54.761Z,1.07
2019-01-14T08:09:22.244Z,1.50
2019-01-14T08:11:49.700Z,1.10
2019-01-14T08:14:17.184Z,5.50
2019-01-14T08:16:44.668Z,1.10
2019-01-14T08:19:12.124Z,1.57
2019-01-14T08:21:39.613Z,1.90
2019-01-14T08:24:07.127Z,5.97
2019-01-14T08:26:34.516Z,1.83
2019-01-14T08:29:02.003Z,1.30
2019-01-14T08:31:29.473Z,1.30
2019-01-14T08:33:56.949Z,2.17
2019-01-14T08:36:24.431Z,1.37
2019-01-14T08:38:51.984Z,1.90
2019-01-14T08:41:20.614Z,2.23
2019-01-14T08:43:49.645Z,1.87
2019-01-14T08:46:17.196Z,2.23
2019-01-14T08:48:48.810Z,2.77
2019-01-14T08:51:13.828Z,1.60
2019-01-14T08:53:41.393Z,1.30
2019-01-14T08:56:08.853Z,1.17
2019-01-14T08:58:36.329Z,1.30
2019-01-14T09:01:03.830Z,1.40
2019-01-14T09:03:31.286Z,1.60
2019-01-14T09:05:58.740Z,1.17
2019-01-14T09:08:28.790Z,1.13
2019-01-14T09:10:55.338Z,1.43
2019-01-14T09:13:22.797Z,0.60
2019-01-14T09:15:50.288Z,0.73
2019-01-14T09:18:17.760Z,0.80
2019-01-14T09:20:45.222Z,1.53
2019-01-14T09:23:13.085Z,0.80
2019-01-14T09:25:40.616Z,1.07
2019-01-14T09:28:08.076Z,1.10
2019-01-14T09:30:35.570Z,0.93
2019-01-14T09:33:03.077Z,0.80
2019-01-14T09:35:30.528Z,0.67
2019-01-14T09:37:57.986Z,0.67
2019-01-14T09:40:25.618Z,1.00
2019-01-14T09:42:53.070Z,0.70
2019-01-14T09:45:21.425Z,0.80
2019-01-14T09:47:48.970Z,0.60
2019-01-14T09:50:16.429Z,0.80
2019-01-14T09:52:43.921Z,0.70
2019-01-14T09:55:12.500Z,0.50
2019-01-14T09:57:39.955Z,1.17
2019-01-14T10:00:08.821Z,0.50
2019-01-14T10:02:36.284Z,0.50
2019-01-14T10:05:04.618Z,0.70
2019-01-14T10:07:32.114Z,0.60
2019-01-14T10:09:59.641Z,1.00
2019-01-14T10:12:27.101Z,0.43
2019-01-14T10:14:54.585Z,0.93
2019-01-14T10:17:23.705Z,0.47
2019-01-14T10:19:51.146Z,0.50
2019-01-14T10:22:18.646Z,0.53
2019-01-14T10:24:46.247Z,0.47
2019-01-14T10:27:13.708Z,4.77
2019-01-14T10:29:41.162Z,0.53
2019-01-14T10:32:08.644Z,0.47
2019-01-14T10:34:36.139Z,0.80
2019-01-14T10:37:03.710Z,1.60
2019-01-14T10:39:31.199Z,0.57
2019-01-14T10:41:58.661Z,0.70
2019-01-14T10:44:26.173Z,0.50
2019-01-14T10:46:53.640Z,5.40
2019-01-14T10:49:21.121Z,0.50
2019-01-14T10:51:48.635Z,0.50
2019-01-14T10:54:16.097Z,0.60
2019-01-14T10:56:44.207Z,0.70
2019-01-14T10:59:11.897Z,1.00
2019-01-14T11:01:39.379Z,1.27
2019-01-14T11:04:06.827Z,0.67
2019-01-14T11:06:34.405Z,0.60
2019-01-14T11:09:05.992Z,1.47
2019-01-14T11:11:31.131Z,0.50
2019-01-14T11:13:58.631Z,0.53
2019-01-14T11:16:26.100Z,2.40
2019-01-14T11:18:53.611Z,17.87
2019-01-14T11:21:21.077Z,2.00
2019-01-14T11:23:48.617Z,4.10
2019-01-14T11:26:16.110Z,0.60
2019-01-14T11:28:43.563Z,0.60
2019-01-14T11:31:11.025Z,0.50
2019-01-14T11:33:38.994Z,0.40
2019-01-14T11:36:06.572Z,0.60
2019-01-14T11:38:38.249Z,3.90
2019-01-14T11:41:05.916Z,1.00
2019-01-14T11:43:33.368Z,0.60
2019-01-14T11:46:00.831Z,1.03
2019-01-14T11:48:28.321Z,0.60
2019-01-14T11:50:55.864Z,0.60
2019-01-14T11:53:23.343Z,0.63
2019-01-14T11:55:50.839Z,0.70
2019-01-14T11:58:18.307Z,4.67
2019-01-14T12:00:45.865Z,1.03
2019-01-14T12:03:13.325Z,0.43
2019-01-14T12:05:40.869Z,0.70
2019-01-14T12:08:08.289Z,0.80
2019-01-14T12:10:35.736Z,0.80
2019-01-14T12:13:03.218Z,3.13
2019-01-14T12:15:30.679Z,0.90
2019-01-14T12:17:58.159Z,0.53
2019-01-14T12:20:25.735Z,0.40
2019-01-14T12:22:53.209Z,0.70
2019-01-14T12:25:20.709Z,0.67
2019-01-14T12:27:48.174Z,0.77
2019-01-14T12:30:17.097Z,2.57
2019-01-14T12:32:44.554Z,0.40
2019-01-14T12:35:12.079Z,0.60
2019-01-14T12:37:39.530Z,1.17
2019-01-14T12:40:08.460Z,0.70
2019-01-14T12:42:36.051Z,2.40
2019-01-14T12:45:04.467Z,3.83
2019-01-14T12:47:31.934Z,0.90
2019-01-14T12:49:59.432Z,8.40
2019-01-14T12:52:27.115Z,0.50
2019-01-14T12:54:54.656Z,0.57
2019-01-14T12:57:24.517Z,0.43
2019-01-14T12:59:52.059Z,0.63
2019-01-14T13:02:19.618Z,0.83
2019-01-14T13:04:47.286Z,0.50
2019-01-14T13:07:14.998Z,0.80
2019-01-14T13:09:42.486Z,1.70
2019-01-14T13:12:09.966Z,0.50
2019-01-14T13:14:37.584Z,0.50
2019-01-14T13:17:05.106Z,0.53
2019-01-14T13:19:32.635Z,1.53
2019-01-14T13:22:00.239Z,2.77
2019-01-14T13:24:27.712Z,0.40
2019-01-14T13:26:55.184Z,0.40
2019-01-14T13:29:22.687Z,0.40
2019-01-14T13:31:50.170Z,0.90
2019-01-14T13:34:17.646Z,0.50
2019-01-14T13:36:45.214Z,1.27
2019-01-14T13:39:12.860Z,0.60
2019-01-14T13:41:40.348Z,0.50
2019-01-14T13:44:07.820Z,0.40
2019-01-14T13:46:35.360Z,0.40
2019-01-14T13:49:02.999Z,0.60
2019-01-14T13:51:30.537Z,0.53
2019-01-14T13:53:58.014Z,1.77
2019-01-14T13:56:25.508Z,0.50
2019-01-14T13:58:53.036Z,0.40
2019-01-14T14:01:20.562Z,0.60
2019-01-14T14:03:48.131Z,0.60
2019-01-14T14:06:15.591Z,0.60
2019-01-14T14:08:43.070Z,0.53
2019-01-14T14:11:10.643Z,1.30
2019-01-14T14:13:38.068Z,0.50
2019-01-14T14:16:05.549Z,2.90
2019-01-14T14:18:33.037Z,0.50
2019-01-14T14:21:00.507Z,0.87
2019-01-14T14:23:27.967Z,0.50
2019-01-14T14:25:55.549Z,0.90
2019-01-14T14:28:23.015Z,0.60
2019-01-14T14:30:50.539Z,0.80
2019-01-14T14:33:18.037Z,1.17
2019-01-14T14:35:45.496Z,0.70
2019-01-14T14:38:13.026Z,1.00
2019-01-14T14:40:40.517Z,0.40
2019-01-14T14:43:07.970Z,0.50
2019-01-14T14:45:35.478Z,0.50
2019-01-14T14:48:02.977Z,0.73
2019-01-14T14:50:30.425Z,0.50
2019-01-14T14:52:57.965Z,3.60
2019-01-14T14:55:25.530Z,0.70
2019-01-14T14:57:53.000Z,1.07
2019-01-14T15:00:21.255Z,0.60
2019-01-14T15:02:48.852Z,0.80
2019-01-14T15:05:16.436Z,1.10
2019-01-14T15:07:43.922Z,0.90
2019-01-14T15:10:12.723Z,0.60
2019-01-14T15:12:40.243Z,0.80
2019-01-14T15:15:08.907Z,0.50
2019-01-14T15:17:36.393Z,0.63
2019-01-14T15:20:05.654Z,1.53
2019-01-14T15:22:33.125Z,0.63
2019-01-14T15:25:00.680Z,0.90
2019-01-14T15:27:28.189Z,1.80
2019-01-14T15:29:55.650Z,1.03
2019-01-14T15:32:23.181Z,0.67
2019-01-14T15:34:50.648Z,0.80
2019-01-14T15:37:18.179Z,0.70
2019-01-14T15:39:45.752Z,1.00
2019-01-14T15:42:13.315Z,1.00
2019-01-14T15:44:40.756Z,1.10
2019-01-14T15:47:08.233Z,0.60
2019-01-14T15:49:35.684Z,0.77
2019-01-14T15:52:03.136Z,0.60
2019-01-14T15:54:30.649Z,1.73
2019-01-14T15:56:58.057Z,0.73
2019-01-14T15:59:25.514Z,0.97
2019-01-14T16:01:53.080Z,0.60
2019-01-14T16:04:20.550Z,0.70
2019-01-14T16:06:48.012Z,0.87
2019-01-14T16:09:15.595Z,1.00
2019-01-14T16:11:43.066Z,0.83
2019-01-14T16:14:10.619Z,0.73
2019-01-14T16:16:38.104Z,0.60
2019-01-14T16:19:05.584Z,0.83
2019-01-14T16:21:33.131Z,1.27
2019-01-14T16:24:00.628Z,0.83
2019-01-14T16:26:28.114Z,1.63
2019-01-14T16:28:55.589Z,1.70
2019-01-14T16:31:23.065Z,1.23
2019-01-14T16:33:50.677Z,0.80
2019-01-14T16:36:18.129Z,0.63
2019-01-14T16:38:45.588Z,1.53
2019-01-14T16:41:13.086Z,0.70
2019-01-14T16:43:40.539Z,0.60
2019-01-14T16:46:08.004Z,0.50
2019-01-14T16:48:35.568Z,0.70
2019-01-14T16:51:03.032Z,0.60
2019-01-14T16:53:30.558Z,0.70
2019-01-14T16:55:58.209Z,1.33
2019-01-14T16:58:25.728Z,0.50
2019-01-14T17:00:53.180Z,0.40
2019-01-14T17:03:20.668Z,0.57
2019-01-14T17:05:48.128Z,0.70
2019-01-14T17:08:15.632Z,0.60
2019-01-14T17:10:43.191Z,0.60
2019-01-14T17:13:10.652Z,0.60
2019-01-14T17:15:38.141Z,1.37
2019-01-14T17:18:05.608Z,0.50
2019-01-14T17:20:33.159Z,0.60
2019-01-14T17:23:00.644Z,0.87
2019-01-14T17:25:28.175Z,0.70
2019-01-14T17:27:55.641Z,0.60
2019-01-14T17:30:23.137Z,0.60
2019-01-14T17:32:50.690Z,0.73
2019-01-14T17:35:18.132Z,1.50
2019-01-14T17:37:45.641Z,0.50
2019-01-14T17:40:14.582Z,4.17
2019-01-14T17:42:42.113Z,1.70
2019-01-14T17:45:11.638Z,0.63
2019-01-14T17:47:39.172Z,2.37
2019-01-14T17:50:11.053Z,1.13
2019-01-14T17:52:38.657Z,1.33
2019-01-14T17:55:06.659Z,0.87
2019-01-14T17:57:34.126Z,1.90
2019-01-14T18:00:01.678Z,2.70
2019-01-14T18:02:29.144Z,0.70
2019-01-14T18:04:56.673Z,1.40
2019-01-14T18:07:24.176Z,0.60
2019-01-14T18:09:51.641Z,1.90
2019-01-14T18:12:19.104Z,0.80
2019-01-14T18:14:46.624Z,1.60
2019-01-14T18:17:14.181Z,1.27
2019-01-14T18:19:42.025Z,4.67
2019-01-14T18:22:09.823Z,1.63
2019-01-14T18:24:37.360Z,2.73
2019-01-14T18:27:04.905Z,0.73
2019-01-14T18:29:32.485Z,1.93
2019-01-14T18:32:00.039Z,1.03
2019-01-14T18:34:27.800Z,1.00
2019-01-14T18:36:55.403Z,0.93
2019-01-14T18:39:22.865Z,1.17
2019-01-14T18:41:50.396Z,1.63
2019-01-14T18:44:17.947Z,1.23
2019-01-14T18:46:45.422Z,0.80
2019-01-14T18:49:12.948Z,0.80
2019-01-14T18:51:40.453Z,1.00
2019-01-14T18:54:07.969Z,1.10
2019-01-14T18:56:35.488Z,1.57
2019-01-14T18:59:03.098Z,3.03
2019-01-14T19:01:30.527Z,1.37
2019-01-14T19:03:58.044Z,1.57
2019-01-14T19:06:25.554Z,0.80
2019-01-14T19:08:53.127Z,0.63
2019-01-14T19:11:20.585Z,1.17
2019-01-14T19:13:48.178Z,0.80
2019-01-14T19:16:15.657Z,1.23
2019-01-14T19:18:43.476Z,0.70
2019-01-14T19:21:10.967Z,0.63
2019-01-14T19:23:38.503Z,1.03
2019-01-14T19:26:06.026Z,1.07
2019-01-14T19:28:33.589Z,0.70
2019-01-14T19:31:01.061Z,0.70
2019-01-14T19:33:30.173Z,0.60
2019-01-14T19:35:57.678Z,0.63
2019-01-14T19:38:25.204Z,0.80
2019-01-14T19:40:53.582Z,0.80
2019-01-14T19:43:21.124Z,1.00
2019-01-14T19:45:49.923Z,1.37
2019-01-14T19:48:17.686Z,0.70
2019-01-14T19:50:45.241Z,1.00
2019-01-14T19:53:12.803Z,1.83
2019-01-14T19:55:40.377Z,0.80
2019-01-14T19:58:07.910Z,0.70
2019-01-14T20:00:35.573Z,0.60
2019-01-14T20:03:03.111Z,0.80
2019-01-14T20:05:30.655Z,0.80
2019-01-14T20:07:58.260Z,0.70
2019-01-14T20:10:25.836Z,1.23
2019-01-14T20:12:53.296Z,5.80
2019-01-14T20:15:21.429Z,1.60
2019-01-14T20:17:48.902Z,1.43
2019-01-14T20:20:16.686Z,0.87
2019-01-14T20:22:44.182Z,0.60
2019-01-14T20:25:12.246Z,2.10
2019-01-14T20:27:39.717Z,0.83
2019-01-14T20:30:11.425Z,0.90
2019-01-14T20:32:39.011Z,1.37
2019-01-14T20:35:06.560Z,0.97
2019-01-14T20:37:34.065Z,1.80
2019-01-14T20:40:01.522Z,1.47
2019-01-14T20:42:29.027Z,1.17
2019-01-14T20:44:56.516Z,0.60
2019-01-14T20:47:23.988Z,0.60
2019-01-14T20:49:51.552Z,0.60
2019-01-14T20:52:19.132Z,1.67
2019-01-14T20:54:46.658Z,0.47
2019-01-14T20:57:14.197Z,1.13
2019-01-14T20:59:41.697Z,0.50
2019-01-14T21:02:09.259Z,0.40
2019-01-14T21:04:36.712Z,0.40
2019-01-14T21:07:04.257Z,1.00
2019-01-14T21:09:32.245Z,0.50
2019-01-14T21:11:59.716Z,4.23
2019-01-14T21:14:27.179Z,0.70
2019-01-14T21:16:54.686Z,0.40
2019-01-14T21:19:22.144Z,0.60
2019-01-14T21:21:49.630Z,0.50
2019-01-14T21:24:17.125Z,1.30
2019-01-14T21:26:44.605Z,0.50
2019-01-14T21:29:12.165Z,0.50
2019-01-14T21:31:39.630Z,0.67
2019-01-14T21:34:07.163Z,0.57
2019-01-14T21:36:34.663Z,0.93
2019-01-14T21:39:02.241Z,0.77
2019-01-14T21:41:31.486Z,1.43
2019-01-14T21:43:58.983Z,0.60
2019-01-14T21:46:26.446Z,1.23
2019-01-14T21:48:53.937Z,0.83
2019-01-14T21:51:21.500Z,0.67
2019-01-14T21:53:50.872Z,1.43
2019-01-14T21:56:18.297Z,0.60
2019-01-14T21:58:45.745Z,0.40
2019-01-14T22:01:13.233Z,1.60
2019-01-14T22:03:40.914Z,0.70
2019-01-14T22:06:08.320Z,0.53
2019-01-14T22:08:35.828Z,0.57
2019-01-14T22:11:03.297Z,0.63
2019-01-14T22:13:30.751Z,1.47
2019-01-14T22:15:58.316Z,0.57
2019-01-14T22:18:25.781Z,0.60
2019-01-14T22:20:53.238Z,0.50
2019-01-14T22:23:20.718Z,0.80
2019-01-14T22:25:48.175Z,0.73
2019-01-14T22:28:15.652Z,0.33
2019-01-14T22:30:43.143Z,0.60
2019-01-14T22:33:10.669Z,0.50
2019-01-14T22:35:38.140Z,1.70
2019-01-14T22:38:05.616Z,2.53
2019-01-14T22:40:33.119Z,0.60
2019-01-14T22:43:00.620Z,1.63
2019-01-14T22:45:28.366Z,0.60
2019-01-14T22:47:55.934Z,1.03
2019-01-14T22:50:23.509Z,0.73
2019-01-14T22:52:50.963Z,2.63
2019-01-14T22:55:18.432Z,0.63
2019-01-14T22:57:45.920Z,0.47
2019-01-14T23:00:27.979Z,0.80
2019-01-14T23:02:55.472Z,0.50
2019-01-14T23:05:22.938Z,0.50
2019-01-14T23:07:50.405Z,0.63
2019-01-14T23:10:18.077Z,0.50
2019-01-14T23:12:45.572Z,0.60
2019-01-14T23:15:13.007Z,1.53
2019-01-14T23:17:40.557Z,0.60
2019-01-14T23:20:08.184Z,0.60
2019-01-14T23:22:35.726Z,0.60
2019-01-14T23:25:04.269Z,1.47
2019-01-14T23:27:31.742Z,0.50
2019-01-14T23:29:59.453Z,1.30
2019-01-14T23:32:27.014Z,0.50
2019-01-14T23:34:54.492Z,0.73
2019-01-14T23:37:21.999Z,0.60
2019-01-14T23:39:49.457Z,0.60
2019-01-14T23:42:16.929Z,1.07
2019-01-14T23:44:44.439Z,0.60
2019-01-14T23:47:11.914Z,0.57
2019-01-14T23:49:39.393Z,0.50
2019-01-14T23:52:06.901Z,1.37
2019-01-14T23:54:37.090Z,0.63
2019-01-14T23:57:03.501Z,0.57
2019-01-14T23:59:30.992Z,0.43
